Time;durP1;ratioP1;P1;durP2;ratioP2;P2;SDS_P1;SDS_P2;PMS_P1;PMS_P2;Temp;Humidity;BMP_temperature;BMP_pressure;BME280_temperature;BME280_humidity;BME280_pressure;Samples;Min_cycle;Max_cycle;Signal;HPM_P1;HPM_P2
2021/11/24 00:01:17;;;;;;;14.50;12.90;;;;;;;-2.58;100.00;99017.09;4998899;28;20248;-70
2021/11/24 00:03:45;;;;;;;16.30;13.33;;;;;;;-2.51;100.00;99018.56;4955400;28;21241;-69
2021/11/24 00:06:13;;;;;;;14.73;13.17;;;;;;;-2.48;100.00;99021.06;4990423;28;20205;-68
2021/11/24 00:08:41;;;;;;;15.13;12.97;;;;;;;-2.53;100.00;99015.19;4979277;28;20221;-69
2021/11/24 00:11:09;;;;;;;17.23;15.53;;;;;;;-2.51;100.00;99013.38;4993577;28;20232;-71
2021/11/24 00:13:37;;;;;;;15.10;13.47;;;;;;;-2.53;100.00;99008.25;4990612;28;20238;-69
2021/11/24 00:16:07;;;;;;;16.23;13.33;;;;;;;-2.43;100.00;99013.09;4985895;28;20208;-69
2021/11/24 00:18:36;;;;;;;14.57;12.27;;;;;;;-2.45;100.00;99002.78;4979147;28;20608;-69
2021/11/24 00:21:07;;;;;;;13.37;12.10;;;;;;;-2.47;100.00;99001.97;4979671;28;20782;-70
2021/11/24 00:23:36;;;;;;;14.07;12.60;;;;;;;-2.49;100.00;98996.84;4981586;28;20208;-69
2021/11/24 00:26:04;;;;;;;14.73;13.13;;;;;;;-2.46;100.00;99001.09;4988179;28;20689;-70
2021/11/24 00:28:32;;;;;;;14.63;13.00;;;;;;;-2.42;100.00;99000.09;4986842;28;20211;-69
2021/11/24 00:31:00;;;;;;;15.90;13.47;;;;;;;-2.39;100.00;99002.56;4986763;28;20434;-71
2021/11/24 00:33:28;;;;;;;15.23;13.67;;;;;;;-2.40;100.00;98990.50;4995055;28;20918;-70
2021/11/24 00:35:59;;;;;;;17.70;14.43;;;;;;;-2.39;100.00;98997.38;4955373;28;20460;-71
2021/11/24 00:38:28;;;;;;;15.87;13.77;;;;;;;-2.40;100.00;98994.81;4994982;28;20211;-72
2021/11/24 00:40:56;;;;;;;16.60;12.73;;;;;;;-2.30;100.00;98997.91;4979606;28;20487;-71
2021/11/24 00:43:26;;;;;;;19.70;12.87;;;;;;;-2.29;100.00;98982.25;4993362;28;20460;-71
2021/11/24 00:45:55;;;;;;;15.53;13.17;;;;;;;-2.35;100.00;98991.16;4988585;28;20209;-71
2021/11/24 00:48:23;;;;;;;14.83;12.23;;;;;;;-2.29;100.00;98979.66;4991134;28;20211;-69
2021/11/24 00:50:51;;;;;;;16.47;12.80;;;;;;;-2.28;100.00;98976.16;4953683;28;20475;-71
2021/11/24 00:53:20;;;;;;;16.83;12.87;;;;;;;-2.27;100.00;98977.03;4938067;28;21465;-71
2021/11/24 00:55:48;;;;;;;12.67;11.27;;;;;;;-2.21;100.00;98971.59;4996923;28;20443;-71
2021/11/24 00:58:18;;;;;;;14.17;11.13;;;;;;;-2.20;100.00;98975.88;4974841;28;20237;-70
2021/11/24 01:00:46;;;;;;;13.00;11.70;;;;;;;-2.08;100.00;98961.56;4988689;28;20469;-71
2021/11/24 01:03:14;;;;;;;12.97;11.53;;;;;;;-2.16;100.00;98971.44;4989331;28;20817;-71
2021/11/24 01:05:45;;;;;;;13.10;11.67;;;;;;;-2.13;100.00;98976.50;4987264;28;20444;-71
2021/11/24 01:08:13;;;;;;;12.47;11.13;;;;;;;-2.08;100.00;98975.44;4952961;28;20205;-71
2021/11/24 01:10:43;;;;;;;12.30;11.00;;;;;;;-2.08;100.00;98974.56;4995357;28;20980;-71
2021/11/24 01:13:12;;;;;;;13.57;11.83;;;;;;;-2.11;100.00;98967.72;4984096;28;20488;-72
2021/11/24 01:15:41;;;;;;;13.47;12.07;;;;;;;-2.00;100.00;98969.91;4972648;28;20244;-69
2021/11/24 01:18:09;;;;;;;13.80;11.67;;;;;;;-1.97;100.00;98969.78;4985560;28;20228;-70
2021/11/24 01:20:37;;;;;;;14.10;12.57;;;;;;;-2.00;100.00;98971.69;4989650;28;20251;-70
2021/11/24 01:23:05;;;;;;;12.50;11.33;;;;;;;-1.98;100.00;98965.50;4957023;28;20457;-71
2021/11/24 01:25:33;;;;;;;15.30;11.73;;;;;;;-1.99;100.00;98970.78;4989152;28;20205;-69
2021/11/24 01:28:03;;;;;;;13.80;11.93;;;;;;;-1.97;100.00;98976.75;4991091;28;20205;-71
2021/11/24 01:30:31;;;;;;;13.60;11.77;;;;;;;-1.97;100.00;98971.56;4980334;28;20479;-69
2021/11/24 01:32:59;;;;;;;13.13;11.90;;;;;;;-1.91;100.00;98968.69;4987666;28;20537;-71
2021/11/24 01:35:27;;;;;;;13.93;11.93;;;;;;;-1.93;100.00;98963.56;4989423;28;20628;-69
2021/11/24 01:37:55;;;;;;;12.50;11.13;;;;;;;-1.88;100.00;98965.16;4982269;28;20210;-71
2021/11/24 01:40:23;;;;;;;13.13;11.83;;;;;;;-1.92;100.00;98959.22;4962824;28;20235;-69
2021/11/24 01:42:51;;;;;;;12.73;11.37;;;;;;;-1.92;100.00;98959.22;4991497;28;20209;-69
2021/11/24 01:45:22;;;;;;;17.40;13.33;;;;;;;-1.85;100.00;98960.66;4989430;28;20197;-71
2021/11/24 01:47:50;;;;;;;11.97;10.73;;;;;;;-1.85;100.00;98965.03;4972574;28;20452;-71
2021/11/24 01:50:19;;;;;;;16.37;11.47;;;;;;;-1.85;100.00;98958.06;4994865;28;20233;-70
2021/11/24 01:52:47;;;;;;;13.53;11.57;;;;;;;-1.77;100.00;98956.00;4988237;28;20427;-70
2021/11/24 01:55:16;;;;;;;12.10;10.93;;;;;;;-1.84;100.00;98956.31;4956010;28;20737;-71
2021/11/24 01:57:47;;;;;;;11.80;10.70;;;;;;;-1.82;100.00;98955.34;4984785;28;20418;-70
2021/11/24 02:00:18;;;;;;;13.50;11.67;;;;;;;-1.80;100.00;98958.72;4991022;28;20225;-70
2021/11/24 02:02:47;;;;;;;12.47;11.33;;;;;;;-1.86;100.00;98951.19;4974054;28;20235;-70
2021/11/24 02:05:15;;;;;;;13.97;11.80;;;;;;;-1.75;100.00;98941.19;4990100;28;20552;-70
2021/11/24 02:07:44;;;;;;;13.53;10.60;;;;;;;-1.80;100.00;98956.13;4982663;28;20851;-71
2021/11/24 02:10:12;;;;;;;13.43;12.03;;;;;;;-1.76;100.00;98938.66;4988718;28;20678;-70
2021/11/24 02:12:41;;;;;;;14.37;11.90;;;;;;;-1.69;100.00;98953.09;4955405;28;20460;-69
2021/11/24 02:15:10;;;;;;;13.13;11.57;;;;;;;-1.67;100.00;98948.66;4990043;28;20252;-70
2021/11/24 02:17:38;;;;;;;13.03;11.50;;;;;;;-1.68;100.00;98940.94;4975353;28;20212;-69
2021/11/24 02:20:15;;;;;;;14.73;11.50;;;;;;;-1.70;100.00;98943.59;4981917;28;20231;-72
2021/11/24 02:22:43;;;;;;;14.80;11.00;;;;;;;-1.73;100.00;98938.53;4984413;28;20213;-70
2021/11/24 02:25:11;;;;;;;12.53;11.23;;;;;;;-1.69;100.00;98931.47;4986604;28;20213;-70
2021/11/24 02:27:39;;;;;;;14.20;12.70;;;;;;;-1.70;100.00;98922.81;4952354;28;20217;-69
2021/11/24 02:30:07;;;;;;;13.77;11.40;;;;;;;-1.71;100.00;98923.72;4985898;28;20232;-70
2021/11/24 02:32:35;;;;;;;11.80;10.70;;;;;;;-1.66;100.00;98921.78;4985635;28;20620;-69
2021/11/24 02:35:04;;;;;;;11.90;10.83;;;;;;;-1.66;100.00;98921.78;4981520;28;20224;-71
2021/11/24 02:37:33;;;;;;;12.40;11.20;;;;;;;-1.52;100.00;98916.00;4989203;28;20201;-68
2021/11/24 02:40:01;;;;;;;13.37;11.97;;;;;;;-1.61;100.00;98913.78;4993989;28;20211;-70
2021/11/24 02:42:29;;;;;;;13.00;11.77;;;;;;;-1.62;100.00;98919.91;4955434;28;20220;-69
2021/11/24 02:44:57;;;;;;;13.43;11.87;;;;;;;-1.66;100.00;98916.56;4990261;28;20204;-70
2021/11/24 02:47:25;;;;;;;12.33;10.97;;;;;;;-1.59;100.00;98909.38;4993866;28;20566;-68
2021/11/24 02:49:55;;;;;;;12.77;11.47;;;;;;;-1.55;100.00;98905.72;4977380;28;20522;-71
2021/11/24 02:52:24;;;;;;;13.07;11.47;;;;;;;-1.43;100.00;98895.69;4991962;28;20213;-69
2021/11/24 02:54:54;;;;;;;13.70;11.50;;;;;;;-1.53;100.00;98893.50;4987369;28;20222;-71
2021/11/24 02:57:30;;;;;;;12.73;11.53;;;;;;;-1.55;100.00;98886.66;4957701;28;20280;-69
2021/11/24 02:59:58;;;;;;;14.27;11.97;;;;;;;-1.53;100.00;98885.72;4956227;28;20308;-69
2021/11/24 03:02:27;;;;;;;14.97;13.13;;;;;;;-1.54;100.00;98889.22;4994733;28;20246;-70
2021/11/24 03:04:56;;;;;;;12.93;11.47;;;;;;;-1.57;100.00;98880.69;4980953;28;20205;-69
2021/11/24 03:07:24;;;;;;;13.20;10.97;;;;;;;-1.49;100.00;98882.06;4992459;28;20205;-71
2021/11/24 03:09:53;;;;;;;13.97;12.17;;;;;;;-1.44;100.00;98881.00;4988901;28;20571;-69
2021/11/24 03:12:22;;;;;;;11.90;10.80;;;;;;;-1.41;100.00;98880.88;4986705;28;20213;-71
2021/11/24 03:14:50;;;;;;;15.23;12.23;;;;;;;-1.40;100.00;98878.22;4959601;28;20240;-68
2021/11/24 03:17:18;;;;;;;12.83;11.60;;;;;;;-1.40;100.00;98874.78;4975480;28;20214;-69
2021/11/24 03:19:46;;;;;;;11.83;10.63;;;;;;;-1.37;100.00;98879.84;4989384;28;20466;-71
2021/11/24 03:22:21;;;;;;;12.63;11.40;;;;;;;-1.27;100.00;98875.94;4995443;28;20212;-69
2021/11/24 03:24:55;;;;;;;13.00;11.40;;;;;;;-1.23;100.00;98877.50;4989474;28;20339;-71
2021/11/24 03:27:26;;;;;;;13.10;11.50;;;;;;;-1.27;100.00;98878.53;4987631;28;20570;-69
2021/11/24 03:29:54;;;;;;;13.73;12.27;;;;;;;-1.30;100.00;98870.88;4961245;28;20673;-71
2021/11/24 03:32:22;;;;;;;15.33;10.83;;;;;;;-1.31;100.00;98864.81;4987810;28;20218;-69
2021/11/24 03:34:51;;;;;;;16.70;11.10;;;;;;;-1.32;100.00;98864.91;4992711;28;20441;-71
2021/11/24 03:37:19;;;;;;;14.93;12.20;;;;;;;-1.34;100.00;98857.16;4994017;28;20208;-69
2021/11/24 03:39:48;;;;;;;13.50;11.30;;;;;;;-1.30;100.00;98865.69;4993347;28;20418;-71
2021/11/24 03:42:17;;;;;;;13.13;11.27;;;;;;;-1.35;100.00;98855.47;4982943;28;20210;-69
2021/11/24 03:44:47;;;;;;;11.27;10.17;;;;;;;-1.32;100.00;98850.13;4986057;28;20464;-69
2021/11/24 03:47:15;;;;;;;13.53;12.23;;;;;;;-1.32;100.00;98849.28;4960151;28;20268;-69
2021/11/24 03:49:43;;;;;;;12.77;10.90;;;;;;;-1.33;100.00;98852.78;4989192;28;20202;-68
2021/11/24 03:52:11;;;;;;;13.03;11.50;;;;;;;-1.28;100.00;98852.59;4994567;28;20752;-70
2021/11/24 03:54:39;;;;;;;11.67;10.50;;;;;;;-1.25;100.00;98844.66;4990836;28;20671;-71
2021/11/24 03:57:07;;;;;;;12.87;10.83;;;;;;;-1.23;100.00;98854.09;4992115;28;20697;-70
2021/11/24 03:59:36;;;;;;;10.87;9.63;;;;;;;-1.22;100.00;98854.91;4979042;28;20459;-71
2021/11/24 04:02:05;;;;;;;12.80;11.50;;;;;;;-1.23;100.00;98843.69;4952837;28;20264;-71
2021/11/24 04:04:34;;;;;;;13.43;11.10;;;;;;;-1.25;100.00;98845.50;4978941;28;20232;-71
2021/11/24 04:07:03;;;;;;;11.87;10.63;;;;;;;-1.23;100.00;98841.06;4995799;28;20209;-68
2021/11/24 04:09:31;;;;;;;10.77;9.67;;;;;;;-1.23;100.00;98841.06;4987381;28;20619;-69
2021/11/24 04:11:59;;;;;;;11.57;10.57;;;;;;;-1.25;100.00;98837.69;4988482;28;20226;-69
2021/11/24 04:14:27;;;;;;;12.00;10.63;;;;;;;-1.22;100.00;98829.75;4986237;28;20212;-70
2021/11/24 04:16:55;;;;;;;12.57;11.00;;;;;;;-1.15;100.00;98832.06;4986173;28;20665;-70
2021/11/24 04:19:24;;;;;;;10.53;9.43;;;;;;;-1.11;100.00;98841.44;4957427;28;20213;-69
2021/11/24 04:21:52;;;;;;;10.33;9.43;;;;;;;-1.10;100.00;98836.16;4989954;28;20590;-70
2021/11/24 04:24:20;;;;;;;12.50;10.67;;;;;;;-1.19;100.00;98832.22;4989763;28;21239;-69
2021/11/24 04:26:48;;;;;;;13.13;10.70;;;;;;;-1.21;100.00;98838.38;4989529;28;20337;-69
2021/11/24 04:29:16;;;;;;;11.20;10.10;;;;;;;-1.20;100.00;98830.53;4983674;28;20238;-69
2021/11/24 04:31:44;;;;;;;11.90;10.80;;;;;;;-1.22;100.00;98836.69;4985061;28;20474;-71
2021/11/24 04:34:12;;;;;;;11.30;10.20;;;;;;;-1.21;100.00;98843.59;4956993;28;20231;-71
2021/11/24 04:36:43;;;;;;;12.63;10.73;;;;;;;-1.15;100.00;98834.69;4983672;28;20261;-72
2021/11/24 04:39:11;;;;;;;10.43;9.43;;;;;;;-1.12;100.00;98832.78;4991729;28;20206;-69
2021/11/24 04:41:39;;;;;;;11.87;10.67;;;;;;;-1.12;100.00;98826.72;4974751;28;20402;-70
2021/11/24 04:44:08;;;;;;;12.27;10.80;;;;;;;-1.15;100.00;98832.91;4975051;28;20447;-68
2021/11/24 04:46:36;;;;;;;11.10;10.00;;;;;;;-1.21;100.00;98828.84;4992606;28;20204;-70
2021/11/24 04:49:04;;;;;;;13.33;11.57;;;;;;;-1.18;100.00;98826.09;4951905;28;21543;-72
2021/11/24 04:51:32;;;;;;;12.90;11.13;;;;;;;-1.11;100.00;98820.63;4970052;28;20220;-70
2021/11/24 04:54:01;;;;;;;12.43;11.23;;;;;;;-1.13;100.00;98822.44;4973472;28;20553;-72
2021/11/24 04:56:29;;;;;;;14.07;10.63;;;;;;;-1.02;100.00;98822.78;4994986;28;20340;-71
2021/11/24 04:58:59;;;;;;;11.97;10.87;;;;;;;-1.07;100.00;98822.16;4966169;28;20358;-68
2021/11/24 05:01:27;;;;;;;13.50;10.77;;;;;;;-1.04;100.00;98828.09;4992451;28;20221;-71
2021/11/24 05:03:56;;;;;;;12.73;11.07;;;;;;;-0.90;100.00;98824.84;4955180;28;20215;-69
2021/11/24 05:06:24;;;;;;;10.77;9.77;;;;;;;-0.83;100.00;98832.38;4946475;28;21118;-69
2021/11/24 05:08:52;;;;;;;12.50;10.23;;;;;;;-0.88;100.00;98832.56;4979049;28;20209;-70
2021/11/24 05:11:22;;;;;;;14.20;12.57;;;;;;;-0.94;100.00;98820.69;4987257;28;20303;-70
2021/11/24 05:13:53;;;;;;;10.73;9.90;;;;;;;-0.93;100.00;98825.00;4982063;28;21109;-70
2021/11/24 05:16:23;;;;;;;10.37;9.33;;;;;;;-0.92;100.00;98826.69;4973157;28;20837;-71
2021/11/24 05:18:52;;;;;;;10.10;9.10;;;;;;;-0.91;100.00;98827.50;4988496;28;20808;-69
2021/11/24 05:21:25;;;;;;;12.03;10.30;;;;;;;-0.97;100.00;98836.44;4977600;28;20240;-70
2021/11/24 05:23:53;;;;;;;10.33;9.40;;;;;;;-0.93;100.00;98827.59;4957158;28;20520;-69
2021/11/24 05:26:22;;;;;;;10.53;9.33;;;;;;;-0.91;100.00;98836.16;4989410;28;20216;-69
2021/11/24 05:28:51;;;;;;;9.77;8.87;;;;;;;-0.96;100.00;98830.31;4969546;28;20205;-67
2021/11/24 05:31:19;;;;;;;11.83;10.67;;;;;;;-0.98;100.00;98821.72;4986034;28;20696;-69
2021/11/24 05:33:48;;;;;;;13.67;11.70;;;;;;;-0.98;100.00;98829.53;4978251;28;20640;-68
2021/11/24 05:36:17;;;;;;;10.63;9.63;;;;;;;-0.92;100.00;98831.03;4975750;28;22887;-70
2021/11/24 05:38:46;;;;;;;10.60;9.53;;;;;;;-0.87;100.00;98831.66;4955529;28;20213;-67
2021/11/24 05:41:14;;;;;;;9.93;9.03;;;;;;;-0.92;100.00;98821.47;4986354;28;20304;-70
2021/11/24 05:43:44;;;;;;;10.37;9.37;;;;;;;-0.94;100.00;98830.25;4988505;28;20213;-67
2021/11/24 05:46:16;;;;;;;11.03;9.93;;;;;;;-0.92;100.00;98834.50;4978566;28;20304;-71
2021/11/24 05:48:45;;;;;;;11.37;10.17;;;;;;;-0.97;100.00;98820.00;4987555;28;20209;-68
2021/11/24 05:51:14;;;;;;;11.03;10.10;;;;;;;-0.75;100.00;98823.28;4972704;28;22333;-70
2021/11/24 05:53:42;;;;;;;9.33;8.47;;;;;;;-0.89;100.00;98802.25;4958862;28;20213;-68
2021/11/24 05:56:10;;;;;;;13.53;9.97;;;;;;;-0.88;100.00;98810.00;4989084;28;20474;-68
2021/11/24 05:58:38;;;;;;;10.83;9.73;;;;;;;-0.67;100.00;98799.47;4991823;28;20740;-71
2021/11/24 06:01:08;;;;;;;13.67;9.87;;;;;;;-0.85;100.00;98805.56;4975789;28;20228;-70
2021/11/24 06:03:36;;;;;;;10.00;9.03;;;;;;;-0.90;100.00;98809.22;4992048;28;20300;-70
2021/11/24 06:06:04;;;;;;;10.73;9.63;;;;;;;-0.90;100.00;98809.22;4977693;28;20447;-71
2021/11/24 06:08:32;;;;;;;11.30;10.10;;;;;;;-0.92;100.00;98816.28;4982853;28;20216;-71
2021/11/24 06:11:00;;;;;;;10.53;9.20;;;;;;;-0.90;100.00;98808.38;4957375;28;20768;-68
2021/11/24 06:13:31;;;;;;;14.03;10.23;;;;;;;-0.95;100.00;98803.38;4994980;28;20596;-71
2021/11/24 06:15:59;;;;;;;11.13;9.97;;;;;;;-0.88;100.00;98810.00;4979085;28;20259;-69
2021/11/24 06:18:28;;;;;;;12.07;10.87;;;;;;;-0.88;100.00;98807.41;4995041;28;20205;-71
2021/11/24 06:20:56;;;;;;;11.33;10.13;;;;;;;-0.88;100.00;98811.75;4978878;28;20233;-69
2021/11/24 06:23:24;;;;;;;12.73;11.03;;;;;;;-0.81;100.00;98802.72;4997417;28;20213;-70
2021/11/24 06:25:52;;;;;;;10.83;9.73;;;;;;;-0.86;100.00;98798.69;4959134;28;20208;-68
2021/11/24 06:28:20;;;;;;;11.47;10.27;;;;;;;-0.88;100.00;98793.53;4998694;28;20205;-71
2021/11/24 06:30:48;;;;;;;10.43;9.40;;;;;;;-0.87;100.00;98797.81;4991179;28;20264;-69
2021/11/24 06:33:16;;;;;;;15.70;10.23;;;;;;;-0.86;100.00;98798.69;4992169;28;20301;-71
2021/11/24 06:35:46;;;;;;;10.50;9.43;;;;;;;-0.94;100.00;98793.81;4994282;28;20281;-68
2021/11/24 06:38:14;;;;;;;11.07;9.93;;;;;;;-1.00;100.00;98797.53;4969499;28;20209;-68
2021/11/24 06:40:42;;;;;;;11.27;10.27;;;;;;;-1.06;100.00;98785.69;4963579;28;20225;-70
2021/11/24 06:43:10;;;;;;;11.43;10.27;;;;;;;-1.10;100.00;98797.16;4983646;28;20226;-68
2021/11/24 06:45:38;;;;;;;12.03;10.77;;;;;;;-1.14;100.00;98790.38;4988645;28;20212;-70
2021/11/24 06:48:06;;;;;;;11.50;9.50;;;;;;;-1.23;100.00;98794.25;4982214;28;20634;-67
2021/11/24 06:50:34;;;;;;;10.50;9.70;;;;;;;-1.18;100.00;98791.44;4992926;28;20929;-69
2021/11/24 06:53:05;;;;;;;16.17;13.30;;;;;;;-1.23;100.00;98793.41;4974862;28;20206;-70
2021/11/24 06:55:34;;;;;;;11.77;10.57;;;;;;;-1.27;100.00;98790.13;4957398;28;20867;-70
2021/11/24 06:58:02;;;;;;;11.33;10.20;;;;;;;-1.28;100.00;98788.44;4996351;28;20221;-68
2021/11/24 07:00:30;;;;;;;9.93;8.93;;;;;;;-1.27;100.00;98784.06;4990879;28;20615;-70
2021/11/24 07:02:58;;;;;;;14.70;13.10;;;;;;;-1.31;100.00;98786.78;4983585;28;20253;-72
2021/11/24 07:05:27;;;;;;;11.20;10.07;;;;;;;-1.11;100.00;98792.00;4989889;28;21047;-72
2021/11/24 07:07:55;;;;;;;13.07;11.23;;;;;;;-1.21;100.00;98788.97;4981597;28;20212;-71
2021/11/24 07:10:25;;;;;;;10.63;9.63;;;;;;;-1.20;100.00;98794.13;4949037;28;21655;-72
2021/11/24 07:12:53;;;;;;;12.37;10.67;;;;;;;-1.04;100.00;98793.41;4995355;28;20584;-71
2021/11/24 07:15:22;;;;;;;10.47;9.37;;;;;;;-1.10;100.00;98794.53;4952018;28;20213;-70
2021/11/24 07:17:50;;;;;;;13.60;11.97;;;;;;;-0.94;100.00;98794.69;4985799;28;20228;-73
2021/11/24 07:20:19;;;;;;;13.43;11.60;;;;;;;-0.95;100.00;98798.16;4965427;28;20434;-72
2021/11/24 07:22:58;;;;;;;13.83;10.63;;;;;;;-1.06;100.00;98798.69;4988539;28;20220;-73
2021/11/24 07:25:34;;;;;;;12.00;10.83;;;;;;;-1.05;100.00;98796.91;4985944;28;20205;-70
2021/11/24 07:28:02;;;;;;;12.40;11.13;;;;;;;-1.02;100.00;98795.03;4984010;28;20205;-72
2021/11/24 07:30:31;;;;;;;12.03;10.87;;;;;;;-0.88;100.00;98793.53;4969315;28;20233;-70
2021/11/24 07:32:59;;;;;;;14.93;11.93;;;;;;;-0.82;100.00;98803.66;4983278;28;20236;-69
2021/11/24 07:35:27;;;;;;;14.13;11.07;;;;;;;-0.74;100.00;98790.28;4984292;28;20208;-71
2021/11/24 07:37:55;;;;;;;14.17;12.63;;;;;;;-0.60;100.00;98787.84;4987648;28;20224;-68
2021/11/24 07:40:23;;;;;;;13.30;12.00;;;;;;;-0.65;100.00;98784.63;4984465;28;20256;-69
2021/11/24 07:43:06;;;;;;;14.13;12.77;;;;;;;-0.67;100.00;98783.84;4989533;28;20630;-67
2021/11/24 07:45:52;;;;;;;14.27;12.77;;;;;;;-0.68;100.00;98781.34;4964768;28;20304;-67
2021/11/24 07:48:24;;;;;;;13.13;11.73;;;;;;;-0.61;100.00;98786.16;4996573;28;20407;-69
2021/11/24 07:50:52;;;;;;;14.13;11.77;;;;;;;-0.60;100.00;98789.63;4989388;28;20607;-67
2021/11/24 07:53:20;;;;;;;13.33;11.70;;;;;;;-0.62;100.00;98781.88;4970924;28;20759;-68
2021/11/24 07:55:49;;;;;;;14.20;11.13;;;;;;;-0.57;100.00;98773.84;4994963;28;20208;-68
2021/11/24 07:58:19;;;;;;;14.87;11.53;;;;;;;-0.57;100.00;98773.84;4986148;28;20430;-70
2021/11/24 08:00:49;;;;;;;13.70;11.03;;;;;;;-0.52;100.00;98773.66;4964790;28;20245;-71
2021/11/24 08:03:17;;;;;;;13.20;11.73;;;;;;;-0.54;100.00;98767.66;4996588;28;20396;-72
2021/11/24 08:05:45;;;;;;;13.43;11.93;;;;;;;-0.45;100.00;98760.22;4990651;28;20206;-70
2021/11/24 08:08:17;;;;;;;12.47;11.27;;;;;;;-0.40;100.00;98761.75;4975035;28;20363;-70
2021/11/24 08:10:47;;;;;;;14.00;11.83;;;;;;;-0.34;100.00;98751.88;4978966;28;20700;-70
2021/11/24 08:13:17;;;;;;;13.80;12.10;;;;;;;-0.27;100.00;98747.22;4988015;28;20233;-71
2021/11/24 08:15:46;;;;;;;14.07;11.83;;;;;;;-0.12;100.00;98747.38;4964163;28;20217;-70
2021/11/24 08:18:15;;;;;;;14.30;11.73;;;;;;;-0.09;100.00;98740.25;4991154;28;20494;-71
2021/11/24 08:20:44;;;;;;;13.40;12.00;;;;;;;0.03;100.00;98735.31;4992286;28;20296;-72
2021/11/24 08:23:12;;;;;;;11.47;10.37;;;;;;;-0.01;100.00;98732.88;4971448;28;20607;-71
2021/11/24 08:25:40;;;;;;;14.13;12.30;;;;;;;0.03;100.00;98727.50;4988984;28;20307;-71
2021/11/24 08:28:08;;;;;;;16.37;12.03;;;;;;;0.07;100.00;98729.88;4987168;28;20432;-68
2021/11/24 08:30:37;;;;;;;14.63;12.13;;;;;;;0.14;100.00;98727.78;4962368;28;20239;-70
2021/11/24 08:33:07;;;;;;;15.10;11.47;;;;;;;0.26;100.00;98726.28;4981831;28;20213;-68
2021/11/24 08:35:36;;;;;;;13.00;11.57;;;;;;;0.31;100.00;98729.50;4989617;28;20683;-69
2021/11/24 08:38:04;;;;;;;14.33;11.90;;;;;;;0.35;100.00;98719.75;4985468;28;20609;-68
2021/11/24 08:40:32;;;;;;;12.73;11.53;;;;;;;0.41;100.00;98720.28;4980779;28;20232;-70
2021/11/24 08:43:00;;;;;;;14.60;13.20;;;;;;;0.49;100.00;98717.25;4983620;28;20469;-68
2021/11/24 08:45:31;;;;;;;15.23;12.60;;;;;;;0.60;100.00;98716.66;4968371;28;20264;-71
2021/11/24 08:47:59;;;;;;;14.40;12.90;;;;;;;0.64;100.00;98720.78;4991157;28;20616;-70
2021/11/24 08:50:29;;;;;;;13.97;12.47;;;;;;;0.72;100.00;98728.22;4991146;28;20239;-71
2021/11/24 08:52:57;;;;;;;13.73;11.77;;;;;;;0.77;100.00;98722.75;4990362;28;20601;-69
2021/11/24 08:55:25;;;;;;;13.40;12.07;;;;;;;0.84;100.00;98718.88;4979137;28;20744;-70
2021/11/24 08:57:53;;;;;;;13.57;11.87;;;;;;;0.95;100.00;98719.13;4981267;28;20217;-69
2021/11/24 09:00:23;;;;;;;14.77;11.53;;;;;;;1.02;100.00;98714.41;4985404;28;20234;-70
2021/11/24 09:02:51;;;;;;;12.70;11.57;;;;;;;1.10;100.00;98712.19;4955321;28;20248;-69
2021/11/24 09:05:23;;;;;;;13.33;11.97;;;;;;;1.21;100.00;98706.38;4997779;28;20201;-71
2021/11/24 09:07:53;;;;;;;11.87;10.60;;;;;;;1.36;100.00;98716.88;4985596;28;20597;-69
2021/11/24 09:10:22;;;;;;;15.00;10.97;;;;;;;1.39;100.00;98714.94;4963421;28;20381;-70
2021/11/24 09:12:50;;;;;;;14.73;11.57;;;;;;;1.47;100.00;98705.81;4978773;28;20585;-68
2021/11/24 09:15:18;;;;;;;13.70;11.17;;;;;;;1.55;100.00;98706.19;4988759;28;20218;-69
2021/11/24 09:18:06;;;;;;;14.50;11.07;;;;;;;1.63;100.00;98709.19;4965070;28;20481;-70
2021/11/24 09:20:35;;;;;;;13.47;10.40;;;;;;;1.85;100.00;98700.09;4987710;28;20224;-70
2021/11/24 09:23:06;;;;;;;12.00;10.90;;;;;;;1.94;100.00;98715.25;4948975;28;20221;-68
2021/11/24 09:25:39;;;;;;;13.00;10.10;;;;;;;1.94;100.00;98711.81;4985960;28;20203;-70
2021/11/24 09:28:09;;;;;;;10.07;9.00;;;;;;;2.21;100.00;98708.44;4985632;28;20708;-70
2021/11/24 09:30:39;;;;;;;11.67;8.20;;;;;;;2.23;100.00;98701.34;4991365;28;20236;-72
2021/11/24 09:33:07;;;;;;;13.80;9.23;;;;;;;2.28;100.00;98702.75;4987711;28;20208;-73
2021/11/24 09:35:36;;;;;;;7.67;6.57;;;;;;;2.42;100.00;98695.81;4976169;28;20339;-72
2021/11/24 09:38:06;;;;;;;7.13;6.10;;;;;;;2.58;100.00;98691.31;4954654;28;20240;-69
2021/11/24 09:40:34;;;;;;;9.07;6.63;;;;;;;2.56;100.00;98687.09;4975494;28;20241;-71
2021/11/24 09:43:05;;;;;;;5.37;4.97;;;;;;;2.76;100.00;98678.00;4991243;28;20209;-67
2021/11/24 09:45:35;;;;;;;5.30;4.87;;;;;;;2.87;100.00;98672.94;4991281;28;20424;-69
2021/11/24 09:48:04;;;;;;;6.17;5.57;;;;;;;2.91;100.00;98681.41;4986763;28;20220;-68
2021/11/24 09:50:34;;;;;;;5.57;5.17;;;;;;;2.98;100.00;98671.41;4985078;28;20403;-70
2021/11/24 09:53:03;;;;;;;10.23;7.00;;;;;;;2.99;100.00;98662.59;4961414;28;20834;-70
2021/11/24 09:55:37;;;;;;;6.77;6.17;;;;;;;2.98;100.00;98659.13;4975739;28;20536;-70
2021/11/24 09:58:09;;;;;;;6.27;4.90;;;;;;;3.04;100.00;98650.91;4988828;28;20233;-70
2021/11/24 10:00:40;;;;;;;5.27;4.80;;;;;;;3.10;100.00;98643.59;4989514;28;20739;-70
2021/11/24 10:03:10;;;;;;;4.87;4.37;;;;;;;3.19;100.00;98641.16;4988669;28;20244;-69
2021/11/24 10:05:39;;;;;;;4.70;4.30;;;;;;;3.26;100.00;98638.19;4987508;28;20732;-72
2021/11/24 10:08:10;;;;;;;4.90;4.60;;;;;;;3.31;100.00;98636.09;4956562;28;20222;-71
2021/11/24 10:10:40;;;;;;;3.13;2.93;;;;;;;3.43;100.00;98629.19;4996309;28;20312;-71
2021/11/24 10:13:08;;;;;;;2.97;2.77;;;;;;;3.47;100.00;98628.03;4975158;28;20629;-68
2021/11/24 10:15:48;;;;;;;2.97;2.77;;;;;;;3.52;100.00;98622.47;4990945;28;20205;-71
2021/11/24 10:18:20;;;;;;;2.73;2.57;;;;;;;3.72;100.00;98614.09;4986247;28;20519;-71
2021/11/24 10:20:52;;;;;;;2.67;2.47;;;;;;;3.74;100.00;98614.84;4985649;28;20232;-71
2021/11/24 10:23:33;;;;;;;2.87;2.70;;;;;;;3.79;100.00;98605.81;4958378;28;20223;-70
2021/11/24 10:26:21;;;;;;;2.67;2.57;;;;;;;3.78;100.00;98601.50;4992666;28;20200;-69
2021/11/24 10:29:14;;;;;;;2.20;2.10;;;;;;;3.89;100.00;98593.72;4987586;28;20204;-69
2021/11/24 10:31:43;;;;;;;2.53;2.40;;;;;;;3.89;100.00;98594.59;4992293;28;20747;-70
2021/11/24 10:34:15;;;;;;;3.00;2.80;;;;;;;3.91;100.00;98591.84;4988281;28;20212;-71
2021/11/24 10:37:00;;;;;;;2.20;2.10;;;;;;;3.96;100.00;98588.91;4991568;28;20241;-72
2021/11/24 10:39:31;;;;;;;2.60;2.40;;;;;;;4.00;100.00;98577.25;4954089;28;20656;-70
2021/11/24 10:42:12;;;;;;;2.80;2.60;;;;;;;4.23;100.00;98570.38;4991379;28;20605;-69
2021/11/24 10:44:55;;;;;;;3.20;3.00;;;;;;;4.32;100.00;98566.25;4979448;28;20213;-72
2021/11/24 10:47:34;;;;;;;2.27;2.17;;;;;;;4.25;100.00;98562.41;4987666;28;20533;-71
2021/11/24 10:50:18;;;;;;;3.57;2.63;;;;;;;4.33;100.00;98558.25;4983563;28;20222;-69
2021/11/24 10:53:07;;;;;;;2.80;2.60;;;;;;;4.34;100.00;98552.06;4992451;28;20209;-70
2021/11/24 10:55:36;;;;;;;2.37;2.27;;;;;;;4.43;100.00;98549.75;4953333;28;20279;-70
2021/11/24 10:58:15;;;;;;;2.37;2.17;;;;;;;4.42;100.00;98546.28;4980732;28;20284;-70
2021/11/24 11:00:46;;;;;;;2.83;2.63;;;;;;;4.28;100.00;98539.41;4994754;28;20231;-70
2021/11/24 11:03:48;;;;;;;2.80;2.37;;;;;;;4.31;100.00;98536.56;4994727;28;20209;-71
2021/11/24 11:06:28;;;;;;;2.87;2.67;;;;;;;4.49;100.00;98539.63;4991560;28;20201;-70
2021/11/24 11:08:57;;;;;;;2.50;2.30;;;;;;;4.63;100.00;98529.91;4986547;28;20870;-71
2021/11/24 11:11:28;;;;;;;3.00;2.77;;;;;;;4.80;100.00;98525.19;4960321;28;20253;-70
2021/11/24 11:14:20;;;;;;;2.07;1.97;;;;;;;4.85;100.00;98513.41;4983622;28;20718;-68
2021/11/24 11:16:50;;;;;;;2.33;1.90;;;;;;;4.78;100.00;98514.81;4986274;28;20408;-71
2021/11/24 11:19:38;;;;;;;3.93;3.63;;;;;;;4.89;100.00;98511.38;4994364;28;20221;-69
2021/11/24 11:22:07;;;;;;;4.67;4.23;;;;;;;5.05;100.00;98500.53;4988347;28;20239;-71
2021/11/24 11:24:35;;;;;;;3.17;2.93;;;;;;;5.21;100.00;98487.94;4987719;28;20255;-70
2021/11/24 11:27:04;;;;;;;2.90;2.70;;;;;;;5.46;100.00;98490.44;4964812;28;20213;-71